Time;durP1;ratioP1;P1;durP2;ratioP2;P2;SDS_P1;SDS_P2;PMS_P1;PMS_P2;Temp;Humidity;BMP_temperature;BMP_pressure;BME280_temperature;BME280_humidity;BME280_pressure;Samples;Min_cycle;Max_cycle;Signal;HPM_P1;HPM_P2
2023/11/03 00:01:17;;;;;;;9.43;4.53;;;7.50;99.90;;;;;;4128129;28;20126;-61
2023/11/03 00:03:19;;;;;;;9.20;4.43;;;7.60;99.90;;;;;;4127191;28;20039;-60
2023/11/03 00:05:21;;;;;;;9.83;5.03;;;7.60;99.90;;;;;;4128804;28;20444;-59
2023/11/03 00:07:22;;;;;;;7.73;4.90;;;7.60;99.90;;;;;;4127714;28;20097;-59
2023/11/03 00:09:23;;;;;;;6.80;4.90;;;7.60;99.90;;;;;;4128035;28;20085;-61
2023/11/03 00:11:27;;;;;;;8.17;4.87;;;7.60;99.90;;;;;;4127625;28;20031;-61
2023/11/03 00:13:28;;;;;;;10.63;5.10;;;7.60;99.90;;;;;;4128579;28;20077;-60
2023/11/03 00:15:29;;;;;;;8.80;4.97;;;7.60;99.90;;;;;;4126924;28;20053;-60
2023/11/03 00:17:30;;;;;;;6.60;4.63;;;7.60;99.90;;;;;;4127911;28;20800;-61
2023/11/03 00:19:32;;;;;;;8.20;4.80;;;7.60;99.90;;;;;;4127170;28;20442;-60
2023/11/03 00:21:34;;;;;;;6.47;4.27;;;7.60;99.90;;;;;;4127484;28;20430;-60
2023/11/03 00:23:35;;;;;;;6.23;4.80;;;7.60;99.90;;;;;;4127931;28;20446;-60
2023/11/03 00:25:36;;;;;;;7.77;4.97;;;7.60;99.90;;;;;;4127198;28;20548;-60
2023/11/03 00:27:37;;;;;;;7.87;4.60;;;7.60;99.90;;;;;;4128420;28;20034;-60
2023/11/03 00:29:38;;;;;;;7.77;4.90;;;7.60;99.90;;;;;;4130097;28;20121;-59
2023/11/03 00:31:46;;;;;;;9.57;4.53;;;7.60;99.90;;;;;;4130894;28;20046;-60
2023/11/03 00:33:47;;;;;;;7.80;4.83;;;7.60;99.90;;;;;;4130372;28;20089;-60
2023/11/03 00:35:48;;;;;;;7.37;4.60;;;7.70;99.90;;;;;;4131375;28;20034;-59
2023/11/03 00:37:51;;;;;;;9.23;4.80;;;7.70;99.90;;;;;;4130374;28;20553;-60
2023/11/03 00:39:52;;;;;;;6.93;4.80;;;7.70;99.90;;;;;;4131608;28;20054;-60
2023/11/03 00:41:53;;;;;;;9.73;4.80;;;7.80;99.90;;;;;;4130637;28;20034;-59
2023/11/03 00:43:54;;;;;;;8.43;4.33;;;7.80;99.90;;;;;;4131304;28;20475;-60
2023/11/03 00:45:56;;;;;;;9.80;4.80;;;7.90;99.90;;;;;;4130108;28;20030;-58
2023/11/03 00:47:57;;;;;;;6.07;3.77;;;8.00;99.90;;;;;;4130807;28;20431;-61
2023/11/03 00:49:59;;;;;;;7.63;4.00;;;8.00;99.90;;;;;;4129946;28;20415;-62
2023/11/03 00:52:00;;;;;;;9.77;4.27;;;8.00;99.90;;;;;;4130960;28;20113;-60
2023/11/03 00:54:05;;;;;;;9.20;4.20;;;8.10;99.90;;;;;;4130754;28;20113;-61
2023/11/03 00:56:07;;;;;;;6.23;3.73;;;8.10;99.90;;;;;;4125407;28;20134;-61
2023/11/03 00:58:08;;;;;;;6.90;4.30;;;8.00;99.90;;;;;;4120013;28;20034;-61
2023/11/03 01:00:13;;;;;;;8.40;4.23;;;8.00;99.90;;;;;;4128622;28;20042;-61
2023/11/03 01:02:31;;;;;;;6.30;4.10;;;8.00;99.90;;;;;;4131325;28;20022;-61
2023/11/03 01:04:32;;;;;;;8.20;4.30;;;8.00;99.90;;;;;;4130966;28;20046;-62
2023/11/03 01:06:33;;;;;;;6.73;4.50;;;7.90;99.90;;;;;;4130776;28;20435;-61
2023/11/03 01:08:35;;;;;;;7.60;4.17;;;7.90;99.90;;;;;;4130378;28;20046;-61
2023/11/03 01:10:37;;;;;;;8.50;4.70;;;7.90;99.90;;;;;;4130873;28;20442;-61
2023/11/03 01:12:38;;;;;;;7.97;4.53;;;7.90;99.90;;;;;;4129663;28;20035;-62
2023/11/03 01:14:39;;;;;;;6.50;4.30;;;7.90;99.90;;;;;;4130933;28;20038;-60
2023/11/03 01:16:41;;;;;;;7.80;4.33;;;7.80;99.90;;;;;;4129205;28;20379;-62
2023/11/03 01:18:43;;;;;;;9.00;4.57;;;7.70;99.90;;;;;;4130831;28;20092;-61
2023/11/03 01:20:48;;;;;;;9.80;5.10;;;7.70;99.90;;;;;;4129588;28;20026;-62
2023/11/03 01:22:49;;;;;;;8.33;4.43;;;7.70;99.90;;;;;;4130594;28;20474;-61
2023/11/03 01:24:52;;;;;;;8.87;4.80;;;7.70;99.90;;;;;;4129485;28;20030;-58
2023/11/03 01:26:53;;;;;;;8.83;4.93;;;7.70;99.90;;;;;;4130654;28;20101;-61
2023/11/03 01:28:54;;;;;;;7.67;4.30;;;7.60;99.90;;;;;;4129815;28;20035;-61
2023/11/03 01:30:55;;;;;;;7.00;3.90;;;7.70;99.90;;;;;;4130226;28;20085;-61
2023/11/03 01:32:56;;;;;;;9.67;4.73;;;7.70;99.90;;;;;;4128810;28;20080;-60
2023/11/03 01:34:58;;;;;;;5.40;4.27;;;7.80;99.90;;;;;;4129369;28;20034;-62
2023/11/03 01:36:59;;;;;;;6.57;4.27;;;7.90;99.90;;;;;;4130414;28;20097;-61
2023/11/03 01:39:00;;;;;;;9.43;4.10;;;7.90;99.90;;;;;;4128778;28;20034;-60
2023/11/03 01:41:02;;;;;;;8.37;4.57;;;7.90;99.90;;;;;;4130651;28;20042;-61
2023/11/03 01:43:03;;;;;;;10.43;4.30;;;7.90;99.90;;;;;;4128627;28;20057;-61
2023/11/03 01:45:05;;;;;;;7.57;4.73;;;7.90;99.90;;;;;;4130211;28;20034;-59
2023/11/03 01:47:06;;;;;;;6.53;3.80;;;7.90;99.90;;;;;;4129226;28;20438;-61
2023/11/03 01:49:11;;;;;;;5.70;4.07;;;7.90;99.90;;;;;;4129606;28;20030;-59
2023/11/03 01:51:12;;;;;;;8.33;4.60;;;7.90;99.90;;;;;;4129414;28;20090;-60
2023/11/03 01:53:14;;;;;;;6.23;3.90;;;7.90;99.90;;;;;;4130413;28;20549;-62
2023/11/03 01:55:16;;;;;;;6.90;4.23;;;8.00;99.90;;;;;;4129524;28;20038;-61
2023/11/03 01:57:19;;;;;;;6.80;4.43;;;8.00;99.90;;;;;;4130666;28;20077;-61
2023/11/03 01:59:20;;;;;;;6.07;3.30;;;7.90;99.90;;;;;;4129362;28;20042;-62
2023/11/03 02:01:22;;;;;;;6.03;4.13;;;8.00;99.90;;;;;;4130311;28;20100;-62
2023/11/03 02:03:23;;;;;;;7.77;4.00;;;7.90;99.90;;;;;;4129065;28;20062;-61
2023/11/03 02:05:25;;;;;;;9.97;4.27;;;7.90;99.90;;;;;;4129749;28;20034;-61
2023/11/03 02:07:26;;;;;;;8.17;4.00;;;7.80;99.90;;;;;;4129468;28;20023;-58
2023/11/03 02:09:27;;;;;;;5.37;4.03;;;7.80;99.90;;;;;;4128647;28;20104;-62
2023/11/03 02:11:30;;;;;;;5.13;4.13;;;7.80;99.90;;;;;;4129363;28;20089;-58
2023/11/03 02:13:35;;;;;;;6.20;4.17;;;7.80;99.90;;;;;;4129058;28;20085;-61
2023/11/03 02:15:39;;;;;;;7.77;4.27;;;7.90;99.90;;;;;;4128397;28;20816;-61
2023/11/03 02:17:41;;;;;;;6.53;3.90;;;7.90;99.90;;;;;;4128936;28;20043;-60
2023/11/03 02:19:42;;;;;;;6.40;4.33;;;7.90;99.90;;;;;;4129804;28;20076;-61
2023/11/03 02:21:44;;;;;;;9.37;4.53;;;7.90;99.90;;;;;;4128190;28;20104;-59
2023/11/03 02:23:45;;;;;;;9.03;3.90;;;8.00;99.90;;;;;;4129691;28;20027;-60
2023/11/03 02:25:46;;;;;;;6.80;4.00;;;8.00;99.90;;;;;;4128322;28;20030;-61
2023/11/03 02:27:49;;;;;;;5.80;3.67;;;8.00;99.90;;;;;;4130091;28;20084;-60
2023/11/03 02:29:50;;;;;;;7.30;4.40;;;8.00;99.90;;;;;;4128711;28;20042;-60
2023/11/03 02:31:52;;;;;;;8.07;4.87;;;8.00;99.90;;;;;;4129609;28;20494;-61
2023/11/03 02:33:53;;;;;;;6.50;3.50;;;8.00;99.90;;;;;;4127997;28;20047;-62
2023/11/03 02:35:54;;;;;;;8.40;4.13;;;7.90;99.90;;;;;;4129790;28;20057;-62
2023/11/03 02:37:56;;;;;;;7.60;4.20;;;7.90;99.90;;;;;;4128918;28;20077;-60
2023/11/03 02:39:57;;;;;;;8.00;4.20;;;8.00;99.90;;;;;;4129032;28;20026;-57
2023/11/03 02:41:58;;;;;;;5.50;3.83;;;8.00;99.90;;;;;;4129618;28;20034;-60
2023/11/03 02:43:59;;;;;;;5.90;3.97;;;7.90;99.90;;;;;;4128578;28;20042;-61
2023/11/03 02:46:00;;;;;;;9.60;4.40;;;7.90;99.90;;;;;;4129353;28;20440;-60
2023/11/03 02:48:02;;;;;;;8.70;4.33;;;8.00;99.90;;;;;;4128627;28;20467;-59
2023/11/03 02:50:03;;;;;;;5.43;3.70;;;7.90;99.90;;;;;;4129468;28;20491;-61
2023/11/03 02:52:05;;;;;;;5.53;4.23;;;7.90;99.90;;;;;;4127924;28;20100;-60
2023/11/03 02:54:07;;;;;;;8.30;4.53;;;8.00;99.90;;;;;;4128151;28;20093;-57
2023/11/03 02:56:08;;;;;;;6.37;3.80;;;7.90;99.90;;;;;;4128167;28;20384;-60
2023/11/03 02:58:09;;;;;;;8.90;4.87;;;7.90;99.90;;;;;;4129436;28;20030;-61
2023/11/03 03:00:12;;;;;;;7.40;4.10;;;7.90;99.90;;;;;;4127937;28;20674;-60
2023/11/03 03:02:13;;;;;;;9.50;4.30;;;7.90;99.90;;;;;;4128307;28;20553;-59
2023/11/03 03:04:14;;;;;;;4.90;3.53;;;7.90;99.90;;;;;;4127921;28;20486;-61
2023/11/03 03:06:16;;;;;;;11.67;4.83;;;7.90;99.90;;;;;;4129675;28;20034;-59
2023/11/03 03:08:17;;;;;;;7.57;4.67;;;7.80;99.90;;;;;;4128343;28;20031;-59
2023/11/03 03:10:18;;;;;;;8.27;4.20;;;7.80;99.90;;;;;;4128118;28;20538;-59
2023/11/03 03:12:19;;;;;;;5.87;4.13;;;7.80;99.90;;;;;;4128912;28;20030;-61
2023/11/03 03:14:20;;;;;;;7.27;4.03;;;7.80;99.90;;;;;;4128688;28;20085;-61
2023/11/03 03:16:21;;;;;;;5.70;3.77;;;7.80;99.90;;;;;;4128871;28;20042;-61
2023/11/03 03:18:22;;;;;;;7.30;4.10;;;7.80;99.90;;;;;;4127803;28;20042;-59
2023/11/03 03:20:25;;;;;;;7.40;4.40;;;7.80;99.90;;;;;;4128682;28;20038;-62
2023/11/03 03:22:26;;;;;;;6.20;3.97;;;7.80;99.90;;;;;;4127249;28;20030;-60
2023/11/03 03:24:27;;;;;;;8.87;4.20;;;7.90;99.90;;;;;;4128523;28;20030;-60
2023/11/03 03:26:28;;;;;;;7.73;3.90;;;7.90;99.90;;;;;;4127437;28;20375;-61
2023/11/03 03:28:29;;;;;;;8.17;4.33;;;7.90;99.90;;;;;;4128932;28;20034;-60
2023/11/03 03:30:30;;;;;;;6.73;4.53;;;7.90;99.90;;;;;;4126832;28;20076;-61
2023/11/03 03:32:31;;;;;;;8.87;4.03;;;7.90;99.90;;;;;;4128523;28;20470;-59
2023/11/03 03:34:33;;;;;;;6.90;3.53;;;7.90;99.90;;;;;;4126857;28;20042;-58
2023/11/03 03:36:34;;;;;;;6.87;3.50;;;7.90;99.90;;;;;;4128109;28;20038;-60
2023/11/03 03:38:36;;;;;;;5.63;4.10;;;7.90;99.90;;;;;;4127420;28;20034;-61
2023/11/03 03:40:37;;;;;;;8.13;4.03;;;7.90;99.90;;;;;;4127979;28;20026;-60
2023/11/03 03:42:38;;;;;;;6.90;4.10;;;7.90;99.90;;;;;;4127871;28;20469;-62
2023/11/03 03:44:41;;;;;;;11.00;4.27;;;7.90;99.90;;;;;;4127754;28;20042;-61
2023/11/03 03:46:42;;;;;;;6.17;3.97;;;7.90;99.90;;;;;;4128019;28;20196;-60
2023/11/03 03:48:43;;;;;;;6.60;3.70;;;7.90;99.90;;;;;;4127088;28;20149;-60
2023/11/03 03:50:44;;;;;;;6.97;4.00;;;7.90;99.90;;;;;;4128085;28;20509;-61
2023/11/03 03:52:45;;;;;;;6.60;4.30;;;7.90;99.90;;;;;;4126769;28;20030;-61
2023/11/03 03:54:46;;;;;;;7.00;4.20;;;7.90;99.90;;;;;;4127986;28;20078;-61
2023/11/03 03:56:47;;;;;;;6.47;3.70;;;7.90;99.90;;;;;;4126804;28;20042;-62
2023/11/03 03:58:48;;;;;;;6.33;4.47;;;8.00;99.90;;;;;;4128357;28;20084;-61
2023/11/03 04:00:51;;;;;;;6.00;4.40;;;8.00;99.90;;;;;;4126416;28;20030;-61
2023/11/03 04:02:52;;;;;;;6.77;4.20;;;8.10;99.90;;;;;;4126303;28;20050;-60
2023/11/03 04:04:54;;;;;;;9.80;4.10;;;8.20;99.90;;;;;;4126641;28;20434;-60
2023/11/03 04:06:55;;;;;;;7.57;4.47;;;8.30;99.90;;;;;;4128145;28;20058;-61
2023/11/03 04:08:56;;;;;;;6.03;4.27;;;8.30;99.90;;;;;;4126543;28;20092;-60
2023/11/03 04:11:00;;;;;;;6.07;3.90;;;8.30;99.90;;;;;;4127452;28;20053;-61
2023/11/03 04:13:01;;;;;;;5.97;4.30;;;8.30;99.90;;;;;;4126415;28;20022;-61
2023/11/03 04:15:03;;;;;;;6.90;4.47;;;8.30;99.90;;;;;;4125480;28;20042;-62
2023/11/03 04:17:05;;;;;;;6.63;4.20;;;8.30;99.90;;;;;;4083868;28;1239733;-61
2023/11/03 04:19:07;;;;;;;6.27;4.13;;;8.30;99.90;;;;;;4126980;28;20089;-62
2023/11/03 04:21:08;;;;;;;6.10;3.80;;;8.30;99.90;;;;;;4126919;28;20031;-61
2023/11/03 04:23:09;;;;;;;7.00;4.07;;;8.40;99.90;;;;;;4126990;28;20073;-61
2023/11/03 04:25:10;;;;;;;8.73;4.13;;;8.40;99.90;;;;;;4127200;28;20404;-61
2023/11/03 04:27:11;;;;;;;8.17;3.50;;;8.40;99.90;;;;;;4127063;28;20034;-60
2023/11/03 04:29:12;;;;;;;8.90;4.03;;;8.40;99.90;;;;;;4128607;28;20078;-61
2023/11/03 04:31:14;;;;;;;7.67;4.07;;;8.40;99.90;;;;;;4126306;28;20096;-60
2023/11/03 04:33:15;;;;;;;7.60;5.27;;;8.40;99.90;;;;;;4128286;28;20432;-61
2023/11/03 04:35:16;;;;;;;8.27;4.23;;;8.30;99.90;;;;;;4127485;28;20038;-60
2023/11/03 04:37:17;;;;;;;10.73;4.43;;;8.40;99.90;;;;;;4127749;28;20104;-62
2023/11/03 04:39:18;;;;;;;8.27;4.37;;;8.30;99.90;;;;;;4127172;28;20069;-61
2023/11/03 04:41:19;;;;;;;5.67;4.07;;;8.30;99.90;;;;;;4128081;28;20108;-62
2023/11/03 04:43:21;;;;;;;6.97;3.70;;;8.40;99.90;;;;;;4127660;28;20038;-61
2023/11/03 04:45:24;;;;;;;6.47;4.20;;;8.50;99.90;;;;;;4127300;28;20026;-60
2023/11/03 04:47:26;;;;;;;7.80;3.97;;;8.60;99.90;;;;;;4127596;28;20050;-59
2023/11/03 04:49:30;;;;;;;8.37;3.90;;;8.70;99.90;;;;;;4127379;28;20069;-62
2023/11/03 04:51:31;;;;;;;7.30;4.53;;;8.80;99.90;;;;;;4127462;28;20038;-60
2023/11/03 04:53:33;;;;;;;5.97;3.87;;;8.90;99.90;;;;;;4127201;28;20415;-58
2023/11/03 04:55:34;;;;;;;12.97;4.20;;;8.80;99.90;;;;;;4127706;28;20038;-58
2023/11/03 04:57:36;;;;;;;6.73;4.73;;;8.80;99.90;;;;;;4126036;28;20046;-58
2023/11/03 04:59:37;;;;;;;9.23;4.93;;;8.80;99.90;;;;;;4128174;28;20038;-59
2023/11/03 05:01:38;;;;;;;6.47;3.97;;;8.70;99.90;;;;;;4125057;28;20081;-59
2023/11/03 05:03:39;;;;;;;10.70;5.23;;;8.70;99.90;;;;;;4128322;28;20101;-59
2023/11/03 05:05:41;;;;;;;5.67;4.20;;;8.60;99.90;;;;;;4127047;28;20034;-60
2023/11/03 05:07:43;;;;;;;8.77;4.30;;;8.60;99.90;;;;;;4126612;28;20093;-59
2023/11/03 05:09:44;;;;;;;8.03;4.90;;;8.50;99.90;;;;;;4126780;28;20038;-60
2023/11/03 05:11:45;;;;;;;7.90;4.30;;;8.50;99.90;;;;;;4127893;28;20030;-60
2023/11/03 05:13:47;;;;;;;6.53;4.50;;;8.40;99.90;;;;;;4126265;28;20104;-61
2023/11/03 05:15:48;;;;;;;10.43;4.77;;;8.30;99.90;;;;;;4120263;28;20061;-61
2023/11/03 05:17:49;;;;;;;7.93;4.50;;;8.20;99.90;;;;;;4130048;28;20850;-59
2023/11/03 05:19:51;;;;;;;6.30;4.23;;;8.20;99.90;;;;;;4129875;28;20100;-58
2023/11/03 05:21:53;;;;;;;9.07;4.30;;;8.20;99.90;;;;;;4130779;28;20104;-60
2023/11/03 05:23:55;;;;;;;7.53;4.67;;;8.20;99.90;;;;;;4129616;28;20034;-61
2023/11/03 05:25:56;;;;;;;11.17;4.83;;;8.10;99.90;;;;;;4130383;28;20038;-61
2023/11/03 05:27:57;;;;;;;10.37;4.53;;;8.20;99.90;;;;;;4129725;28;20132;-61
2023/11/03 05:30:01;;;;;;;6.50;4.40;;;8.40;99.90;;;;;;4130164;28;20035;-60
2023/11/03 05:32:02;;;;;;;7.67;4.70;;;8.50;99.90;;;;;;4116648;28;20093;-58
2023/11/03 05:34:03;;;;;;;8.93;4.43;;;8.70;99.90;;;;;;4130604;28;20042;-60
2023/11/03 05:36:05;;;;;;;12.17;4.67;;;8.80;99.90;;;;;;4129603;28;20458;-59
2023/11/03 05:38:06;;;;;;;6.90;4.20;;;9.00;99.90;;;;;;4130398;28;20058;-58
2023/11/03 05:40:11;;;;;;;13.10;5.60;;;9.20;99.90;;;;;;4129036;28;20096;-60
2023/11/03 05:42:12;;;;;;;7.97;4.23;;;9.50;99.90;;;;;;4130604;28;20034;-58
2023/11/03 05:44:13;;;;;;;6.67;4.40;;;9.70;99.90;;;;;;4128909;28;20135;-58
2023/11/03 05:46:15;;;;;;;14.37;3.77;;;9.90;99.90;;;;;;4129682;28;20038;-58
2023/11/03 05:48:16;;;;;;;5.17;3.87;;;10.10;99.90;;;;;;4129016;28;20100;-61
2023/11/03 05:50:17;;;;;;;5.20;3.90;;;10.10;99.90;;;;;;4129772;28;20054;-61
2023/11/03 05:52:18;;;;;;;6.93;4.00;;;10.20;99.90;;;;;;4129711;28;20124;-59
2023/11/03 05:54:19;;;;;;;9.97;4.40;;;10.10;99.90;;;;;;4129372;28;20432;-59
2023/11/03 05:56:21;;;;;;;7.07;4.33;;;10.20;99.90;;;;;;4129674;28;20038;-61
2023/11/03 05:58:22;;;;;;;7.33;4.27;;;10.30;99.90;;;;;;4127893;28;20446;-59
2023/11/03 06:00:27;;;;;;;6.53;3.70;;;10.30;99.90;;;;;;4130056;28;20089;-60
2023/11/03 06:02:28;;;;;;;5.57;4.50;;;10.50;99.90;;;;;;4129348;28;20538;-60
2023/11/03 06:04:29;;;;;;;6.20;4.03;;;10.50;99.90;;;;;;4130432;28;20038;-60
2023/11/03 06:06:31;;;;;;;7.90;3.63;;;10.70;99.90;;;;;;4129611;28;20450;-59
2023/11/03 06:08:32;;;;;;;9.27;4.53;;;10.80;99.90;;;;;;4130503;28;20050;-60
2023/11/03 06:10:34;;;;;;;9.40;4.50;;;10.80;99.90;;;;;;4129033;28;20491;-59
2023/11/03 06:12:36;;;;;;;9.43;4.97;;;10.80;99.90;;;;;;4130226;28;20440;-62
2023/11/03 06:14:37;;;;;;;6.70;4.10;;;10.80;99.90;;;;;;4128691;28;20042;-60
2023/11/03 06:16:38;;;;;;;8.90;5.03;;;10.90;99.90;;;;;;4116820;28;20068;-61
2023/11/03 06:18:43;;;;;;;8.60;4.53;;;11.10;99.90;;;;;;4113386;28;20455;-60
2023/11/03 06:20:44;;;;;;;6.00;3.53;;;11.30;99.90;;;;;;4113555;28;20019;-56
2023/11/03 06:22:46;;;;;;;7.47;4.13;;;11.20;99.90;;;;;;4128009;28;20084;-59
2023/11/03 06:24:47;;;;;;;6.00;3.97;;;11.20;99.90;;;;;;4128042;28;20106;-57
2023/11/03 06:26:48;;;;;;;5.73;3.60;;;10.90;99.90;;;;;;4128104;28;20684;-58
2023/11/03 06:28:49;;;;;;;4.73;3.53;;;10.70;99.90;;;;;;4128728;28;20038;-59
2023/11/03 06:30:50;;;;;;;5.40;3.50;;;10.50;99.90;;;;;;4129563;28;20062;-60
2023/11/03 06:32:51;;;;;;;8.00;4.33;;;10.40;99.90;;;;;;4128327;28;20514;-60
2023/11/03 06:34:52;;;;;;;5.83;3.80;;;10.30;99.90;;;;;;4130130;28;20081;-60
2023/11/03 06:36:53;;;;;;;6.33;3.53;;;10.20;99.90;;;;;;4128774;28;20038;-58
2023/11/03 06:38:54;;;;;;;10.83;4.60;;;10.20;99.90;;;;;;4129527;28;20112;-59
2023/11/03 06:40:58;;;;;;;8.83;4.40;;;10.20;99.90;;;;;;4128491;28;20144;-60
2023/11/03 06:42:59;;;;;;;7.40;3.97;;;10.30;99.90;;;;;;4129570;28;20019;-58
2023/11/03 06:45:00;;;;;;;6.30;3.80;;;10.30;99.90;;;;;;4117475;28;20101;-59
2023/11/03 06:47:01;;;;;;;10.70;4.10;;;10.60;99.90;;;;;;4113451;28;20034;-59
2023/11/03 06:49:02;;;;;;;9.73;4.70;;;10.80;99.90;;;;;;4112652;28;20073;-58
2023/11/03 06:51:13;;;;;;;10.47;4.47;;;11.10;99.90;;;;;;4113004;28;20093;-58
2023/11/03 06:53:14;;;;;;;;;;;11.30;99.90;;;;;;4113442;28;20043;-58
2023/11/03 06:55:15;;;;;;;6.27;3.77;;;11.40;99.90;;;;;;4113051;28;19910;-58
2023/11/03 06:57:16;;;;;;;8.53;4.57;;;11.50;99.90;;;;;;4120669;28;20034;-58
2023/11/03 06:59:17;;;;;;;5.40;3.93;;;11.50;99.90;;;;;;4128548;28;20047;-59
2023/11/03 07:01:18;;;;;;;7.70;3.77;;;11.50;99.90;;;;;;4128682;28;20030;-59
2023/11/03 07:03:20;;;;;;;6.03;3.87;;;11.40;99.90;;;;;;4127459;28;20108;-59
2023/11/03 07:05:23;;;;;;;6.87;4.00;;;11.30;99.90;;;;;;4129559;28;20065;-59
2023/11/03 07:07:24;;;;;;;9.83;4.10;;;11.30;99.90;;;;;;4128127;28;20030;-61
2023/11/03 07:09:25;;;;;;;8.37;4.33;;;11.40;99.90;;;;;;4129034;28;20026;-57
2023/11/03 07:11:26;;;;;;;5.57;3.50;;;11.60;99.90;;;;;;4127350;28;20443;-61
2023/11/03 07:13:28;;;;;;;6.33;3.33;;;11.90;99.90;;;;;;4145011;28;20092;-59
2023/11/03 07:15:30;;;;;;;7.00;3.53;;;11.90;99.90;;;;;;4144170;28;20049;-58
2023/11/03 07:17:31;;;;;;;7.10;3.73;;;12.00;99.90;;;;;;4145025;28;20092;-60
2023/11/03 07:19:32;;;;;;;6.97;3.93;;;12.10;99.90;;;;;;4144171;28;20030;-59
2023/11/03 07:21:34;;;;;;;7.33;3.87;;;12.10;99.90;;;;;;4134644;28;20042;-59
2023/11/03 07:23:35;;;;;;;10.97;5.70;;;11.90;99.90;;;;;;4127155;28;20029;-60
2023/11/03 07:25:36;;;;;;;6.47;3.97;;;11.80;99.90;;;;;;4128134;28;20074;-59
2023/11/03 07:27:37;;;;;;;5.70;3.70;;;11.80;99.90;;;;;;4141801;28;20038;-58
2023/11/03 07:29:38;;;;;;;6.13;3.50;;;12.00;99.90;;;;;;4144243;28;20076;-58
2023/11/03 07:31:39;;;;;;;4.90;3.30;;;12.10;99.90;;;;;;4129918;28;20120;-56
2023/11/03 07:33:41;;;;;;;6.57;3.00;;;12.20;99.90;;;;;;4141297;28;20042;-58
2023/11/03 07:35:42;;;;;;;7.93;3.50;;;12.30;99.90;;;;;;4145442;28;20046;-60
2023/11/03 07:37:44;;;;;;;5.73;3.50;;;12.30;99.90;;;;;;4143681;28;20038;-61
2023/11/03 07:39:45;;;;;;;6.67;4.03;;;12.40;99.90;;;;;;4133281;28;20108;-58
2023/11/03 07:41:46;;;;;;;7.10;4.00;;;12.30;99.90;;;;;;4127596;28;20097;-58
2023/11/03 07:43:48;;;;;;;9.33;5.03;;;12.30;99.90;;;;;;4128786;28;20089;-59
2023/11/03 07:45:50;;;;;;;6.27;3.83;;;12.20;99.90;;;;;;4126937;28;20089;-59
2023/11/03 07:47:51;;;;;;;7.07;4.33;;;12.10;99.90;;;;;;4128847;28;20054;-56
2023/11/03 07:49:53;;;;;;;6.17;4.57;;;12.10;99.90;;;;;;4127440;28;20054;-60
2023/11/03 07:51:54;;;;;;;6.33;3.97;;;12.10;99.90;;;;;;4128503;28;20096;-58
2023/11/03 07:53:55;;;;;;;7.93;4.10;;;12.00;99.90;;;;;;4127445;28;20563;-60
2023/11/03 07:55:56;;;;;;;6.70;3.73;;;12.00;99.90;;;;;;4128009;28;20035;-59
2023/11/03 07:57:57;;;;;;;6.47;3.97;;;12.00;99.90;;;;;;4127089;28;20042;-62
2023/11/03 08:00:00;;;;;;;7.70;4.30;;;12.00;99.90;;;;;;4126649;28;20081;-61
2023/11/03 08:02:01;;;;;;;6.97;4.33;;;11.90;99.90;;;;;;4128373;28;20022;-60
2023/11/03 08:04:02;;;;;;;7.77;4.03;;;11.90;99.90;;;;;;4127773;28;20034;-60
2023/11/03 08:06:05;;;;;;;4.00;3.20;;;11.90;99.90;;;;;;4128866;28;20034;-61
2023/11/03 08:08:06;;;;;;;8.20;3.67;;;12.10;99.90;;;;;;4127517;28;20042;-60
2023/11/03 08:10:11;;;;;;;5.77;3.23;;;12.30;99.90;;;;;;4128686;28;20423;-62
2023/11/03 08:12:13;;;;;;;6.53;3.70;;;12.30;99.90;;;;;;4127277;28;20108;-60
2023/11/03 08:14:15;;;;;;;9.37;3.67;;;12.30;99.90;;;;;;4128338;28;20042;-63
2023/11/03 08:16:16;;;;;;;4.97;3.83;;;12.30;99.90;;;;;;4125842;28;20038;-61
2023/11/03 08:18:18;;;;;;;6.77;4.10;;;12.30;99.90;;;;;;4112156;28;20086;-59
2023/11/03 08:20:19;;;;;;;5.57;3.77;;;12.30;99.90;;;;;;4111151;28;20105;-60
2023/11/03 08:22:20;;;;;;;6.57;4.00;;;12.20;99.90;;;;;;4115843;28;20042;-60
2023/11/03 08:24:21;;;;;;;8.83;4.40;;;12.20;99.90;;;;;;4127195;28;20049;-62
2023/11/03 08:26:22;;;;;;;8.17;3.90;;;12.20;99.90;;;;;;4128003;28;20072;-60
2023/11/03 08:28:23;;;;;;;7.73;4.30;;;12.20;99.90;;;;;;4127452;28;20034;-62
2023/11/03 08:30:25;;;;;;;5.67;3.67;;;12.20;99.90;;;;;;4127677;28;20030;-62
2023/11/03 08:32:26;;;;;;;9.73;4.67;;;12.20;99.90;;;;;;4127597;28;20085;-61
2023/11/03 08:34:29;;;;;;;9.13;4.80;;;12.30;99.90;;;;;;4127103;28;20050;-59
2023/11/03 08:36:31;;;;;;;10.47;4.97;;;12.30;99.90;;;;;;4127001;28;20038;-62
2023/11/03 08:38:34;;;;;;;10.50;5.40;;;12.40;99.90;;;;;;4127053;28;20479;-61
2023/11/03 08:40:35;;;;;;;9.60;5.23;;;12.50;99.90;;;;;;4128080;28;20088;-61
2023/11/03 08:42:36;;;;;;;8.57;4.47;;;12.40;99.90;;;;;;4127374;28;20395;-61
2023/11/03 08:44:37;;;;;;;8.30;4.57;;;12.40;99.90;;;;;;4127120;28;20046;-60
2023/11/03 08:46:38;;;;;;;10.63;5.10;;;12.40;99.90;;;;;;4126451;28;20451;-59
2023/11/03 08:48:43;;;;;;;8.57;4.67;;;12.40;99.90;;;;;;4141839;28;20034;-59
2023/11/03 08:50:44;;;;;;;11.20;5.90;;;12.40;99.90;;;;;;4129922;28;20077;-62
2023/11/03 08:52:47;;;;;;;14.17;7.20;;;12.40;99.90;;;;;;4131337;28;20089;-60
2023/11/03 08:54:48;;;;;;;10.33;5.43;;;12.30;99.90;;;;;;4129027;28;20045;-60
2023/11/03 08:56:50;;;;;;;11.47;4.30;;;12.30;99.90;;;;;;4131456;28;20034;-57
2023/11/03 08:58:53;;;;;;;22.90;10.90;;;12.30;99.90;;;;;;4126555;28;20054;-60
2023/11/03 09:00:54;;;;;;;13.83;7.67;;;12.20;99.90;;;;;;4130371;28;20038;-60
2023/11/03 09:02:55;;;;;;;14.90;7.90;;;12.20;99.90;;;;;;4129355;28;20050;-60
2023/11/03 09:04:57;;;;;;;10.10;4.93;;;12.20;99.90;;;;;;4130357;28;20105;-60
2023/11/03 09:06:58;;;;;;;7.60;4.40;;;12.30;99.90;;;;;;4129718;28;20030;-63
2023/11/03 09:08:59;;;;;;;10.00;4.90;;;12.30;99.90;;;;;;4129082;28;20100;-62
2023/11/03 09:11:01;;;;;;;8.73;4.43;;;12.40;99.90;;;;;;4131033;28;20054;-59
2023/11/03 09:13:04;;;;;;;8.10;4.67;;;12.50;99.90;;;;;;4126367;28;21385;-62
2023/11/03 09:15:07;;;;;;;9.03;5.10;;;12.60;99.90;;;;;;4129713;28;20112;-61
2023/11/03 09:17:08;;;;;;;12.73;5.50;;;12.70;99.90;;;;;;4128913;28;20101;-61
2023/11/03 09:19:09;;;;;;;6.47;3.83;;;12.80;99.90;;;;;;4130854;28;20553;-63
2023/11/03 09:21:10;;;;;;;6.27;4.23;;;12.90;99.90;;;;;;4128649;28;20101;-62
2023/11/03 09:23:11;;;;;;;4.77;3.40;;;13.10;99.90;;;;;;4130405;28;20192;-61
2023/11/03 09:25:12;;;;;;;4.73;3.63;;;13.30;99.90;;;;;;4129676;28;20438;-61
2023/11/03 09:27:14;;;;;;;10.20;3.50;;;13.50;99.90;;;;;;4129715;28;20089;-60
2023/11/03 09:29:16;;;;;;;5.83;3.50;;;13.60;99.90;;;;;;4128809;28;20042;-60
2023/11/03 09:31:17;;;;;;;5.47;3.23;;;13.70;99.90;;;;;;4129888;28;20034;-62
2023/11/03 09:33:18;;;;;;;7.50;3.77;;;13.80;99.90;;;;;;4128752;28;20053;-62
2023/11/03 09:35:19;;;;;;;6.10;3.50;;;13.80;99.90;;;;;;4129693;28;20075;-62
2023/11/03 09:37:21;;;;;;;6.40;3.93;;;13.80;99.90;;;;;;4130256;28;20039;-62
2023/11/03 09:39:23;;;;;;;6.43;4.13;;;13.80;99.90;;;;;;4128329;28;20050;-62
2023/11/03 09:41:26;;;;;;;4.83;3.50;;;13.80;99.90;;;;;;4129343;28;20470;-62
2023/11/03 09:43:29;;;;;;;6.63;3.77;;;13.80;99.90;;;;;;4128832;28;20522;-62
2023/11/03 09:45:33;;;;;;;5.63;3.63;;;13.80;99.90;;;;;;4129428;28;20045;-61
2023/11/03 09:47:36;;;;;;;5.10;4.25;;;13.80;99.90;;;;;;4129054;28;20541;-62
2023/11/03 09:49:37;;;;;;;6.85;4.03;;;13.80;99.90;;;;;;4129823;28;20050;-61
2023/11/03 09:51:46;;;;;;;9.43;3.90;;;13.80;99.90;;;;;;4128081;28;20038;-62
2023/11/03 09:53:51;;;;;;;4.65;3.80;;;13.80;99.90;;;;;;4129871;28;20558;-60
2023/11/03 09:55:53;;;;;;;5.13;4.10;;;13.80;99.90;;;;;;4128708;28;20137;-61
2023/11/03 09:58:05;;;;;;;10.48;4.95;;;13.80;99.90;;;;;;4129854;28;20093;-60
2023/11/03 10:00:16;;;;;;;9.55;5.05;;;13.70;99.90;;;;;;4128954;28;20046;-61
2023/11/03 10:02:19;;;;;;;8.82;6.07;;;13.60;99.90;;;;;;4129867;28;20038;-60
2023/11/03 10:04:20;;;;;;;10.88;5.28;;;13.70;99.90;;;;;;4128892;28;20113;-63
2023/11/03 10:06:23;;;;;;;11.37;4.83;;;13.70;99.90;;;;;;4129485;28;20097;-61
2023/11/03 10:08:24;;;;;;;15.07;5.28;;;13.70;99.90;;;;;;4128309;28;20046;-59
2023/11/03 10:10:25;;;;;;;7.20;4.23;;;13.70;99.90;;;;;;4129286;28;20042;-59
2023/11/03 10:12:26;;;;;;;7.23;4.47;;;13.80;99.90;;;;;;4128637;28;20085;-63
2023/11/03 10:14:28;;;;;;;6.00;3.90;;;13.70;99.90;;;;;;4129760;28;20092;-60
2023/11/03 10:16:29;;;;;;;8.38;3.88;;;13.70;99.90;;;;;;4129150;28;20496;-61
2023/11/03 10:18:30;;;;;;;7.35;3.83;;;13.70;99.90;;;;;;4129237;28;20100;-62
2023/11/03 10:20:31;;;;;;;5.20;3.90;;;13.80;99.90;;;;;;4128633;28;20038;-60
2023/11/03 10:22:32;;;;;;;6.93;4.43;;;13.80;99.90;;;;;;4128170;28;20108;-60
2023/11/03 10:24:34;;;;;;;9.47;4.47;;;13.80;99.90;;;;;;4129866;28;20545;-60
2023/11/03 10:26:35;;;;;;;7.30;4.30;;;13.80;99.90;;;;;;4127867;28;20837;-59
2023/11/03 10:28:36;;;;;;;9.02;4.53;;;13.90;99.90;;;;;;4129567;28;20038;-60
2023/11/03 10:30:37;;;;;;;6.68;4.03;;;14.00;99.90;;;;;;4128652;28;20042;-61
2023/11/03 10:32:38;;;;;;;5.53;4.00;;;14.10;99.90;;;;;;4129947;28;20108;-61
2023/11/03 10:34:41;;;;;;;9.35;4.90;;;14.10;99.90;;;;;;4122821;28;20050;-60
2023/11/03 10:36:45;;;;;;;8.65;5.10;;;14.20;99.90;;;;;;4114109;28;20050;-61